Time;durP1;ratioP1;P1;durP2;ratioP2;P2;SDS_P1;SDS_P2;PMS_P1;PMS_P2;Temp;Humidity;BMP_temperature;BMP_pressure;BME280_temperature;BME280_humidity;BME280_pressure;Samples;Min_cycle;Max_cycle;Signal;HPM_P1;HPM_P2
2021/04/27 00:02:11;;;;;;;12.77;6.63;;;30.40;79.40;;;;;;5086992;28;20047;-53
2021/04/27 00:04:38;;;;;;;15.68;6.78;;;30.40;79.20;;;;;;5069132;28;20024;-49
2021/04/27 00:07:05;;;;;;;15.85;7.30;;;30.40;79.00;;;;;;5086702;28;20024;-55
2021/04/27 00:09:32;;;;;;;17.08;7.53;;;30.40;79.10;;;;;;5052172;28;20037;-54
2021/04/27 00:11:58;;;;;;;19.05;7.50;;;30.40;79.10;;;;;;5068942;28;20233;-58
2021/04/27 00:14:27;;;;;;;17.02;6.65;;;30.40;78.80;;;;;;5086760;28;20020;-54
2021/04/27 00:16:59;;;;;;;20.38;7.05;;;30.40;78.80;;;;;;5052188;28;20021;-54
2021/04/27 00:19:26;;;;;;;15.90;6.68;;;30.40;78.70;;;;;;5086647;28;20020;-50
2021/04/27 00:21:53;;;;;;;22.85;7.35;;;30.40;78.60;;;;;;5086379;28;20070;-51
2021/04/27 00:24:20;;;;;;;15.23;7.40;;;30.40;78.60;;;;;;5085691;28;20029;-55
2021/04/27 00:26:47;;;;;;;17.35;8.27;;;30.30;78.70;;;;;;5045728;28;20049;-53
2021/04/27 00:29:15;;;;;;;17.05;7.65;;;30.30;79.00;;;;;;5045318;28;20088;-51
2021/04/27 00:31:41;;;;;;;18.17;6.90;;;30.30;79.00;;;;;;5046383;28;20364;-52
2021/04/27 00:34:09;;;;;;;16.55;7.03;;;30.30;79.20;;;;;;5046439;28;20212;-52
2021/04/27 00:36:36;;;;;;;22.60;8.38;;;30.30;79.60;;;;;;5045231;28;20029;-55
2021/04/27 00:39:05;;;;;;;18.75;7.30;;;30.30;79.90;;;;;;5044979;28;20025;-55
2021/04/27 00:41:34;;;;;;;18.60;7.22;;;30.20;80.40;;;;;;5045301;28;20083;-54
2021/04/27 00:44:01;;;;;;;27.17;7.10;;;30.10;80.70;;;;;;5045366;28;20033;-57
2021/04/27 00:46:28;;;;;;;16.85;6.55;;;30.00;81.30;;;;;;5045207;28;20033;-55
2021/04/27 00:48:57;;;;;;;19.63;7.07;;;30.00;80.80;;;;;;5045162;28;20025;-54
2021/04/27 00:51:23;;;;;;;17.80;6.38;;;30.00;81.00;;;;;;5046973;28;20033;-57
2021/04/27 00:53:54;;;;;;;15.20;6.05;;;29.90;81.60;;;;;;5047104;28;20249;-60
2021/04/27 00:56:22;;;;;;;22.52;6.90;;;29.80;81.30;;;;;;5039719;28;20095;-46
2021/04/27 00:58:53;;;;;;;23.02;7.57;;;29.80;81.50;;;;;;5063778;28;20036;-51
2021/04/27 01:01:22;;;;;;;28.63;7.53;;;29.80;81.90;;;;;;5066339;28;20020;-57
2021/04/27 01:03:51;;;;;;;15.38;7.13;;;29.80;82.00;;;;;;5065666;28;20218;-53
2021/04/27 01:06:19;;;;;;;22.98;7.07;;;29.80;82.00;;;;;;5048597;28;20048;-53
2021/04/27 01:08:51;;;;;;;29.42;7.05;;;29.80;82.20;;;;;;5065134;28;20306;-55
2021/04/27 01:11:29;;;;;;;24.27;6.78;;;29.80;82.10;;;;;;5066263;28;20049;-56
2021/04/27 01:14:32;;;;;;;14.55;6.63;;;29.70;82.40;;;;;;5065868;28;20039;-53
2021/04/27 01:17:09;;;;;;;18.45;6.35;;;29.80;82.00;;;;;;5063799;28;20029;-53
2021/04/27 01:19:46;;;;;;;19.38;6.45;;;29.60;82.00;;;;;;5066390;28;20029;-53
2021/04/27 01:22:20;;;;;;;22.75;6.05;;;29.70;81.80;;;;;;5067853;28;20024;-62
2021/04/27 01:24:58;;;;;;;19.23;6.50;;;29.60;81.90;;;;;;5072697;28;20060;-53
2021/04/27 01:27:29;;;;;;;15.75;6.45;;;29.60;82.00;;;;;;5089016;28;20044;-53
2021/04/27 01:30:04;;;;;;;16.08;6.10;;;29.60;82.10;;;;;;5090282;28;20208;-54
2021/04/27 01:32:37;;;;;;;14.98;6.47;;;29.50;82.10;;;;;;5105889;28;20120;-56
2021/04/27 01:35:05;;;;;;;20.48;7.25;;;29.50;82.10;;;;;;5088013;28;20031;-52
2021/04/27 01:37:35;;;;;;;15.35;6.78;;;29.50;82.10;;;;;;5088214;28;20035;-51
2021/04/27 01:40:03;;;;;;;17.95;6.80;;;29.60;82.10;;;;;;5088814;28;20028;-50
2021/04/27 01:42:44;;;;;;;14.98;7.10;;;29.50;81.60;;;;;;5105941;28;20091;-56
2021/04/27 01:45:20;;;;;;;21.98;7.15;;;29.60;82.00;;;;;;5072153;28;20089;-51
2021/04/27 01:47:51;;;;;;;17.52;7.13;;;29.60;82.40;;;;;;5106422;28;20044;-49
2021/04/27 01:50:21;;;;;;;16.02;7.45;;;29.60;82.50;;;;;;5089080;28;20023;-53
2021/04/27 01:53:06;;;;;;;21.25;7.95;;;29.60;82.60;;;;;;5107473;28;20306;-58
2021/04/27 01:55:34;;;;;;;20.20;7.05;;;29.60;82.50;;;;;;5087955;28;20035;-59
2021/04/27 01:58:07;;;;;;;20.27;7.50;;;29.60;82.30;;;;;;5106199;28;20071;-56
2021/04/27 02:00:37;;;;;;;25.00;7.15;;;29.50;82.30;;;;;;5089550;28;20022;-58
2021/04/27 02:03:10;;;;;;;20.02;7.32;;;29.50;82.30;;;;;;5106690;28;20024;-53
2021/04/27 02:05:42;;;;;;;18.08;7.03;;;29.50;82.20;;;;;;5106248;28;20016;-52
2021/04/27 02:08:09;;;;;;;21.35;7.10;;;29.40;82.30;;;;;;5104896;28;20229;-53
2021/04/27 02:10:39;;;;;;;20.77;7.05;;;29.40;82.90;;;;;;5070827;28;20269;-56
2021/04/27 02:13:14;;;;;;;24.02;7.18;;;29.40;82.10;;;;;;5087990;28;20236;-54
2021/04/27 02:15:42;;;;;;;23.02;7.28;;;29.30;81.40;;;;;;5087026;28;20027;-57
2021/04/27 02:18:38;;;;;;;22.25;7.38;;;29.40;81.50;;;;;;5104447;28;20023;-59
2021/04/27 02:21:07;;;;;;;20.70;7.05;;;29.30;81.10;;;;;;5104574;28;20063;-56
2021/04/27 02:23:38;;;;;;;20.88;7.95;;;29.30;81.70;;;;;;5105067;28;20030;-55
2021/04/27 02:26:09;;;;;;;17.27;7.68;;;29.30;81.50;;;;;;5104998;28;20044;-52
2021/04/27 02:28:37;;;;;;;18.80;7.07;;;29.30;80.90;;;;;;5105213;28;20044;-54
2021/04/27 02:31:09;;;;;;;22.75;7.55;;;29.40;81.00;;;;;;5068860;28;20097;-52
2021/04/27 02:33:36;;;;;;;23.08;7.75;;;29.40;80.70;;;;;;5104120;28;20308;-52
2021/04/27 02:36:08;;;;;;;24.23;7.47;;;29.40;80.50;;;;;;5103934;28;20095;-60
2021/04/27 02:38:36;;;;;;;17.58;6.55;;;29.50;80.70;;;;;;5104299;28;20016;-57
2021/04/27 02:41:04;;;;;;;23.70;7.00;;;29.40;80.00;;;;;;5105341;28;20058;-57
2021/04/27 02:43:37;;;;;;;20.48;7.20;;;29.40;80.20;;;;;;5086979;28;20027;-54
2021/04/27 02:46:08;;;;;;;21.25;6.80;;;29.30;80.30;;;;;;5085682;28;20217;-52
2021/04/27 02:48:37;;;;;;;27.75;11.27;;;29.40;80.30;;;;;;5104445;28;20020;-53
2021/04/27 02:51:06;;;;;;;19.20;11.10;;;29.40;80.50;;;;;;5104813;28;20024;-53
2021/04/27 02:53:33;;;;;;;25.88;13.02;;;29.40;80.70;;;;;;5104321;28;20012;-59
2021/04/27 02:56:00;;;;;;;33.53;21.27;;;29.40;80.30;;;;;;5085986;28;20036;-51
2021/04/27 02:58:28;;;;;;;30.60;15.48;;;29.40;80.40;;;;;;5103251;28;20016;-53
2021/04/27 03:00:58;;;;;;;27.15;12.88;;;29.40;80.50;;;;;;5093061;28;20016;-51
2021/04/27 03:03:26;;;;;;;21.77;11.25;;;29.40;80.70;;;;;;5076530;28;20091;-54
2021/04/27 03:05:53;;;;;;;19.77;10.00;;;29.40;80.70;;;;;;5093409;28;20084;-54
2021/04/27 03:08:20;;;;;;;21.23;9.82;;;29.40;80.60;;;;;;5092557;28;20020;-53
2021/04/27 03:10:46;;;;;;;20.35;10.00;;;29.40;80.40;;;;;;5094184;28;20024;-52
2021/04/27 03:13:13;;;;;;;28.15;9.48;;;29.40;80.40;;;;;;5092789;28;20013;-52
2021/04/27 03:15:40;;;;;;;16.92;7.47;;;29.40;80.50;;;;;;5092697;28;20008;-61
2021/04/27 03:18:07;;;;;;;21.85;8.68;;;29.40;80.30;;;;;;5078563;28;20008;-56
2021/04/27 03:20:34;;;;;;;18.00;7.43;;;29.40;80.40;;;;;;5093999;28;20012;-54
2021/04/27 03:23:00;;;;;;;18.83;7.22;;;29.40;80.40;;;;;;5079889;28;20119;-54
2021/04/27 03:25:27;;;;;;;15.38;7.03;;;29.40;80.10;;;;;;5096333;28;20099;-57
2021/04/27 03:28:02;;;;;;;16.00;7.18;;;29.40;80.10;;;;;;5079331;28;20095;-57
2021/04/27 03:30:28;;;;;;;18.52;7.25;;;29.40;80.00;;;;;;5064006;28;20055;-52
2021/04/27 03:32:55;;;;;;;17.95;6.95;;;29.40;80.10;;;;;;5097917;28;20278;-57
2021/04/27 03:35:25;;;;;;;16.95;7.00;;;29.40;79.80;;;;;;5096716;28;20277;-56
2021/04/27 03:38:14;;;;;;;24.88;7.38;;;29.40;80.00;;;;;;5098251;28;20040;-54
2021/04/27 03:40:41;;;;;;;21.40;6.85;;;29.40;80.20;;;;;;5092995;28;20024;-53
2021/04/27 03:43:08;;;;;;;16.20;6.63;;;29.40;80.00;;;;;;5086800;28;20024;-51
2021/04/27 03:45:36;;;;;;;20.85;6.60;;;29.30;79.70;;;;;;5087511;28;20066;-52
2021/04/27 03:48:14;;;;;;;16.70;6.25;;;29.30;79.70;;;;;;5087965;28;20020;-55
2021/04/27 03:50:44;;;;;;;19.48;6.88;;;29.40;79.70;;;;;;5087589;28;20062;-51
2021/04/27 03:53:12;;;;;;;18.70;6.78;;;29.30;79.50;;;;;;5087723;28;20355;-57
2021/04/27 03:55:39;;;;;;;16.77;6.30;;;29.30;79.50;;;;;;5087377;28;20078;-51
2021/04/27 03:58:07;;;;;;;14.27;5.63;;;29.30;79.50;;;;;;5087262;28;20031;-58
2021/04/27 04:00:35;;;;;;;17.70;5.93;;;29.40;79.40;;;;;;5087148;28;20020;-53
2021/04/27 04:03:02;;;;;;;17.70;6.50;;;29.40;79.30;;;;;;5087551;28;20027;-56
2021/04/27 04:05:29;;;;;;;16.27;5.72;;;29.40;79.60;;;;;;5069002;28;20313;-52
2021/04/27 04:07:56;;;;;;;14.38;5.90;;;29.40;79.40;;;;;;5067661;28;20043;-51
2021/04/27 04:10:23;;;;;;;14.10;5.85;;;29.30;79.40;;;;;;5085058;28;20024;-50
2021/04/27 04:12:49;;;;;;;15.18;6.32;;;29.30;79.50;;;;;;5085802;28;20197;-52
2021/04/27 04:15:18;;;;;;;16.13;6.05;;;29.30;79.40;;;;;;5067352;28;20240;-51
2021/04/27 04:17:45;;;;;;;14.48;6.13;;;29.30;79.80;;;;;;5086136;28;20017;-49
2021/04/27 04:20:23;;;;;;;16.55;5.78;;;29.30;79.60;;;;;;5086231;28;20032;-51
2021/04/27 04:22:50;;;;;;;17.10;6.38;;;29.30;79.30;;;;;;5086924;28;20024;-51
2021/04/27 04:25:18;;;;;;;17.48;6.60;;;29.30;79.20;;;;;;5086420;28;20056;-51
2021/04/27 04:27:45;;;;;;;18.33;6.72;;;29.30;79.20;;;;;;5087090;28;20033;-50
2021/04/27 04:30:21;;;;;;;11.20;5.60;;;29.30;79.20;;;;;;5086381;28;20024;-58
2021/04/27 04:32:48;;;;;;;16.23;6.43;;;29.30;79.10;;;;;;5086826;28;20048;-51
2021/04/27 04:35:17;;;;;;;16.67;6.38;;;29.30;79.10;;;;;;5086402;28;20047;-48
2021/04/27 04:37:43;;;;;;;18.35;6.28;;;29.30;79.10;;;;;;5068407;28;20024;-50
2021/04/27 04:40:12;;;;;;;14.45;5.85;;;29.30;79.20;;;;;;5068344;28;20025;-55
2021/04/27 04:42:40;;;;;;;16.40;6.13;;;29.20;79.40;;;;;;5086582;28;20048;-50
2021/04/27 04:45:08;;;;;;;15.98;6.97;;;29.30;79.40;;;;;;5085973;28;20340;-52
2021/04/27 04:47:35;;;;;;;16.67;6.90;;;29.30;80.00;;;;;;5086430;28;20071;-49
2021/04/27 04:50:02;;;;;;;20.38;6.03;;;29.20;79.40;;;;;;5085998;28;20039;-50
2021/04/27 04:52:29;;;;;;;17.90;6.03;;;29.20;79.70;;;;;;5086239;28;20032;-51
2021/04/27 04:54:55;;;;;;;15.52;5.72;;;29.20;79.80;;;;;;5086053;28;20027;-53
2021/04/27 04:57:22;;;;;;;17.75;6.25;;;29.20;79.90;;;;;;5086320;28;20313;-54
2021/04/27 04:59:49;;;;;;;13.25;5.93;;;29.20;79.90;;;;;;5085857;28;20320;-52
2021/04/27 05:02:16;;;;;;;15.13;6.32;;;29.10;79.90;;;;;;5086201;28;20051;-58
2021/04/27 05:04:43;;;;;;;18.27;6.82;;;29.10;80.10;;;;;;5085854;28;20126;-56
2021/04/27 05:07:12;;;;;;;11.75;5.95;;;29.10;80.50;;;;;;5085712;28;20032;-52
2021/04/27 05:09:40;;;;;;;15.25;5.68;;;29.10;80.60;;;;;;5085588;28;20024;-53
2021/04/27 05:12:11;;;;;;;13.00;6.03;;;29.00;80.70;;;;;;5086022;28;20324;-54
2021/04/27 05:14:40;;;;;;;16.98;6.05;;;29.00;80.70;;;;;;5085501;28;20025;-53
2021/04/27 05:17:08;;;;;;;16.98;6.18;;;29.00;81.00;;;;;;5085872;28;20047;-52
2021/04/27 05:19:35;;;;;;;15.65;6.50;;;29.00;81.00;;;;;;5085433;28;20024;-53
2021/04/27 05:22:04;;;;;;;18.30;6.20;;;29.00;81.10;;;;;;5085591;28;20091;-55
2021/04/27 05:24:31;;;;;;;17.15;6.22;;;29.00;81.20;;;;;;5085228;28;20025;-56
2021/04/27 05:26:57;;;;;;;15.35;6.07;;;29.00;81.20;;;;;;5085386;28;20039;-51
2021/04/27 05:29:24;;;;;;;14.40;5.57;;;29.00;81.20;;;;;;5085083;28;20035;-50
2021/04/27 05:31:52;;;;;;;15.45;5.63;;;29.00;80.80;;;;;;5085497;28;20024;-54
2021/04/27 05:34:20;;;;;;;12.68;6.03;;;29.00;80.50;;;;;;5085201;28;20239;-54
2021/04/27 05:36:47;;;;;;;15.25;5.80;;;29.00;80.40;;;;;;5085232;28;20321;-57
2021/04/27 05:39:14;;;;;;;17.50;5.88;;;28.90;80.30;;;;;;5085136;28;20248;-57
2021/04/27 05:41:41;;;;;;;11.75;5.45;;;28.90;80.10;;;;;;5085341;28;20309;-55
2021/04/27 05:44:09;;;;;;;18.80;5.30;;;28.90;80.20;;;;;;5084148;28;20024;-55
2021/04/27 05:46:36;;;;;;;14.60;5.75;;;29.00;80.40;;;;;;5085127;28;20071;-52
2021/04/27 05:49:03;;;;;;;13.98;6.05;;;28.90;80.00;;;;;;5084851;28;20039;-49
2021/04/27 05:51:30;;;;;;;13.15;6.03;;;28.90;80.10;;;;;;5084840;28;20048;-51
2021/04/27 05:53:58;;;;;;;11.55;5.20;;;28.90;80.00;;;;;;5066959;28;20063;-50
2021/04/27 05:56:25;;;;;;;17.27;6.13;;;28.90;80.10;;;;;;5085097;28;20032;-53
2021/04/27 05:58:52;;;;;;;13.05;5.60;;;28.90;80.30;;;;;;5084803;28;20012;-51
2021/04/27 06:01:18;;;;;;;14.48;5.20;;;28.90;80.50;;;;;;5084755;28;20206;-48
2021/04/27 06:03:45;;;;;;;12.88;5.20;;;28.80;80.80;;;;;;5084728;28;20016;-53
2021/04/27 06:06:12;;;;;;;20.80;5.93;;;28.80;80.90;;;;;;5084386;28;20020;-54
2021/04/27 06:08:38;;;;;;;17.15;6.15;;;28.80;80.90;;;;;;5084548;28;20013;-45
2021/04/27 06:11:06;;;;;;;12.10;5.63;;;28.90;80.80;;;;;;5084414;28;20033;-47
2021/04/27 06:13:36;;;;;;;15.13;5.75;;;28.90;80.70;;;;;;5084394;28;20032;-48
2021/04/27 06:16:04;;;;;;;12.20;5.70;;;28.90;80.60;;;;;;5084554;28;20025;-49
2021/04/27 06:18:37;;;;;;;14.27;5.78;;;28.90;80.60;;;;;;5084414;28;20021;-46
2021/04/27 06:21:05;;;;;;;12.38;5.70;;;28.90;80.60;;;;;;5084357;28;20036;-52
2021/04/27 06:23:34;;;;;;;15.02;5.68;;;28.80;80.60;;;;;;5084287;28;20024;-45
2021/04/27 06:26:01;;;;;;;14.38;5.68;;;28.90;80.80;;;;;;5084065;28;20072;-46
2021/04/27 06:28:27;;;;;;;16.35;6.00;;;28.80;81.00;;;;;;5084290;28;20083;-48
2021/04/27 06:30:54;;;;;;;12.15;5.47;;;28.80;81.00;;;;;;5084288;28;20143;-50
2021/04/27 06:33:20;;;;;;;21.00;6.47;;;28.80;81.00;;;;;;5084106;28;20032;-51
2021/04/27 06:35:47;;;;;;;19.40;6.32;;;28.80;81.00;;;;;;5084106;28;20035;-49
2021/04/27 06:38:17;;;;;;;15.15;5.88;;;28.80;81.10;;;;;;5084062;28;20039;-46
2021/04/27 06:40:45;;;;;;;15.65;5.78;;;28.80;81.10;;;;;;5083791;28;20213;-47
2021/04/27 06:43:12;;;;;;;17.48;6.53;;;28.80;81.30;;;;;;5083920;28;20367;-60
2021/04/27 06:45:38;;;;;;;14.98;6.40;;;28.70;81.50;;;;;;5084133;28;20030;-53
2021/04/27 06:48:06;;;;;;;27.95;6.85;;;28.70;81.60;;;;;;5083978;28;20100;-49
2021/04/27 06:50:34;;;;;;;17.23;6.38;;;28.70;81.80;;;;;;5084048;28;20051;-52
2021/04/27 06:53:01;;;;;;;21.73;6.60;;;28.70;82.00;;;;;;5084454;28;20091;-49
2021/04/27 06:55:28;;;;;;;29.88;7.03;;;28.60;82.30;;;;;;5083838;28;20024;-49
2021/04/27 06:58:00;;;;;;;22.30;7.50;;;28.70;82.30;;;;;;5084303;28;20032;-46
2021/04/27 07:00:27;;;;;;;22.73;6.28;;;28.70;82.50;;;;;;5083966;28;20088;-49
2021/04/27 07:02:53;;;;;;;31.20;7.22;;;28.60;82.30;;;;;;5084202;28;20020;-52
2021/04/27 07:05:20;;;;;;;21.95;6.40;;;28.60;82.40;;;;;;5084027;28;20050;-49
2021/04/27 07:07:47;;;;;;;21.20;6.63;;;28.60;82.60;;;;;;5084184;28;20197;-49
2021/04/27 07:10:13;;;;;;;23.80;6.85;;;28.60;82.60;;;;;;5083506;28;20024;-50
2021/04/27 07:12:40;;;;;;;37.53;8.52;;;28.60;82.80;;;;;;5084151;28;20032;-47
2021/04/27 07:15:07;;;;;;;43.58;8.30;;;28.60;82.80;;;;;;5083754;28;20047;-46
2021/04/27 07:17:34;;;;;;;43.50;8.25;;;28.50;82.70;;;;;;5083936;28;20016;-51
2021/04/27 07:20:00;;;;;;;32.03;7.40;;;28.50;82.70;;;;;;5065616;28;20042;-51
2021/04/27 07:22:27;;;;;;;28.88;7.40;;;28.50;83.10;;;;;;5084137;28;20024;-52
2021/04/27 07:24:56;;;;;;;34.78;7.35;;;28.50;83.50;;;;;;5083269;28;20036;-49
2021/04/27 07:27:23;;;;;;;25.35;7.05;;;28.50;83.10;;;;;;5083749;28;20055;-48
2021/04/27 07:29:52;;;;;;;29.45;6.93;;;28.40;83.30;;;;;;5083684;28;20048;-50
2021/04/27 07:32:18;;;;;;;26.83;6.72;;;28.40;83.40;;;;;;5083657;28;20030;-51
2021/04/27 07:34:45;;;;;;;19.85;6.38;;;28.40;83.40;;;;;;5083558;28;20353;-50
2021/04/27 07:37:11;;;;;;;20.48;6.15;;;28.40;83.60;;;;;;5083702;28;20021;-52
2021/04/27 07:39:38;;;;;;;24.13;6.82;;;28.40;83.90;;;;;;5083399;28;20033;-48
2021/04/27 07:42:05;;;;;;;19.10;6.70;;;28.40;83.80;;;;;;5083796;28;20058;-48
2021/04/27 07:44:32;;;;;;;16.13;6.57;;;28.40;83.90;;;;;;5083296;28;20046;-50
2021/04/27 07:46:59;;;;;;;15.55;5.97;;;28.40;83.90;;;;;;5083649;28;20252;-47
2021/04/27 07:49:25;;;;;;;16.60;6.50;;;28.40;84.00;;;;;;5083238;28;20236;-51
2021/04/27 07:51:52;;;;;;;12.77;6.28;;;28.40;84.10;;;;;;5083486;28;20027;-46
2021/04/27 07:54:19;;;;;;;17.40;6.28;;;28.30;84.10;;;;;;5083412;28;20100;-51
2021/04/27 07:56:46;;;;;;;13.52;5.97;;;28.30;84.30;;;;;;5083434;28;20141;-53
2021/04/27 07:59:13;;;;;;;18.42;6.28;;;28.30;84.40;;;;;;5083187;28;20042;-46
2021/04/27 08:01:40;;;;;;;16.95;5.80;;;28.30;84.50;;;;;;5083511;28;20020;-48
2021/04/27 08:04:07;;;;;;;22.42;6.43;;;28.30;84.50;;;;;;5065295;28;20016;-56
2021/04/27 08:06:34;;;;;;;15.32;6.50;;;28.30;84.50;;;;;;5083306;28;20021;-52
2021/04/27 08:09:03;;;;;;;16.92;6.80;;;28.30;84.40;;;;;;5086799;28;20248;-55
2021/04/27 08:11:30;;;;;;;19.92;6.30;;;28.20;84.30;;;;;;5086956;28;20020;-54
2021/04/27 08:13:57;;;;;;;20.70;6.40;;;28.30;84.40;;;;;;5086847;28;20091;-51
2021/04/27 08:16:24;;;;;;;14.48;5.95;;;28.30;84.40;;;;;;5086785;28;20024;-46
2021/04/27 08:18:51;;;;;;;14.85;6.72;;;28.30;84.40;;;;;;5086484;28;20020;-47
2021/04/27 08:21:19;;;;;;;15.15;6.43;;;28.20;84.40;;;;;;5086594;28;20020;-48
2021/04/27 08:23:46;;;;;;;15.05;6.10;;;28.20;84.60;;;;;;5086737;28;20020;-47
2021/04/27 08:26:13;;;;;;;10.50;6.07;;;28.20;84.40;;;;;;5086371;28;20051;-47
2021/04/27 08:28:41;;;;;;;14.88;6.72;;;28.20;84.60;;;;;;5086551;28;20333;-50
2021/04/27 08:31:08;;;;;;;16.63;6.78;;;28.20;84.80;;;;;;5086379;28;20028;-47
2021/04/27 08:33:36;;;;;;;18.67;6.75;;;28.20;84.70;;;;;;5086233;28;20090;-47
2021/04/27 08:36:07;;;;;;;15.80;6.18;;;28.10;84.70;;;;;;5086444;28;20021;-52
2021/04/27 08:38:34;;;;;;;14.00;5.95;;;28.10;84.90;;;;;;5086536;28;20027;-52
2021/04/27 08:41:02;;;;;;;15.70;6.13;;;28.10;84.70;;;;;;5086189;28;20102;-47
2021/04/27 08:43:29;;;;;;;17.20;6.45;;;28.10;84.40;;;;;;5086198;28;20031;-48
2021/04/27 08:45:55;;;;;;;15.98;6.90;;;28.10;84.30;;;;;;5086264;28;20065;-55
2021/04/27 08:48:22;;;;;;;14.52;6.38;;;28.10;84.10;;;;;;5086051;28;20105;-52
2021/04/27 08:50:53;;;;;;;14.60;6.47;;;28.10;83.90;;;;;;5068311;28;20029;-48
2021/04/27 08:53:21;;;;;;;13.88;6.10;;;28.10;83.80;;;;;;5085969;28;20017;-56
2021/04/27 08:55:48;;;;;;;13.75;6.13;;;28.10;83.70;;;;;;5085836;28;20296;-47
2021/04/27 08:58:16;;;;;;;16.27;6.50;;;28.10;83.60;;;;;;5086037;28;20309;-49
2021/04/27 09:00:45;;;;;;;16.77;6.65;;;28.10;83.70;;;;;;5085622;28;20047;-54
2021/04/27 09:03:12;;;;;;;15.45;5.97;;;28.10;83.80;;;;;;5085789;28;20083;-47
2021/04/27 09:05:41;;;;;;;18.98;6.75;;;28.10;83.60;;;;;;5085808;28;20024;-47
2021/04/27 09:08:08;;;;;;;13.70;6.35;;;28.10;83.60;;;;;;5085645;28;20039;-49
2021/04/27 09:10:42;;;;;;;13.98;6.13;;;28.10;83.60;;;;;;5085557;28;20025;-53
2021/04/27 09:13:12;;;;;;;15.70;6.53;;;28.10;83.80;;;;;;5085644;28;20036;-48
2021/04/27 09:15:42;;;;;;;16.50;5.53;;;28.10;83.80;;;;;;5085536;28;20016;-48
2021/04/27 09:18:31;;;;;;;16.77;6.68;;;28.10;83.80;;;;;;5085427;28;20021;-52
2021/04/27 09:21:01;;;;;;;16.08;5.97;;;28.00;83.70;;;;;;5085469;28;20305;-53
2021/04/27 09:23:29;;;;;;;13.60;6.13;;;28.10;83.80;;;;;;5085520;28;20078;-47
2021/04/27 09:26:11;;;;;;;17.88;5.70;;;28.10;83.80;;;;;;5085205;28;20149;-58
2021/04/27 09:28:43;;;;;;;18.17;6.50;;;28.10;83.50;;;;;;5085668;28;20028;-47
2021/04/27 09:31:25;;;;;;;17.98;5.85;;;28.10;83.50;;;;;;5085327;28;20028;-58
2021/04/27 09:33:54;;;;;;;15.90;6.45;;;28.10;83.40;;;;;;5085434;28;20312;-46
2021/04/27 09:36:27;;;;;;;12.15;5.93;;;28.10;83.40;;;;;;5085366;28;20021;-52
2021/04/27 09:38:55;;;;;;;21.02;6.28;;;28.10;83.20;;;;;;5085331;28;20314;-53
2021/04/27 09:41:26;;;;;;;15.90;6.18;;;28.10;83.30;;;;;;5085243;28;20039;-59
2021/04/27 09:43:54;;;;;;;11.25;6.03;;;28.10;83.10;;;;;;5084915;28;20103;-48
2021/04/27 09:46:23;;;;;;;16.73;5.38;;;28.10;83.10;;;;;;5085155;28;20028;-50
2021/04/27 09:48:52;;;;;;;15.27;6.47;;;28.10;82.90;;;;;;5084904;28;20027;-49
2021/04/27 09:51:28;;;;;;;15.65;5.47;;;28.10;82.80;;;;;;5084764;28;20030;-50
2021/04/27 09:54:03;;;;;;;14.68;5.72;;;28.10;82.80;;;;;;5084758;28;20208;-50
2021/04/27 09:56:35;;;;;;;12.68;5.95;;;28.10;82.70;;;;;;5084808;28;20239;-47
2021/04/27 09:59:14;;;;;;;13.38;5.38;;;28.10;82.70;;;;;;5084647;28;20082;-50
2021/04/27 10:01:45;;;;;;;13.10;5.75;;;28.20;82.70;;;;;;5084663;28;20019;-53
2021/04/27 10:04:13;;;;;;;15.07;5.47;;;28.10;82.50;;;;;;5084619;28;20044;-56
2021/04/27 10:06:41;;;;;;;11.50;5.07;;;28.20;82.40;;;;;;5084730;28;20021;-56
2021/04/27 10:09:09;;;;;;;10.43;4.90;;;28.20;82.30;;;;;;5084345;28;20052;-47
2021/04/27 10:11:37;;;;;;;13.02;5.03;;;28.20;82.10;;;;;;5084699;28;20040;-47
2021/04/27 10:14:05;;;;;;;11.23;4.63;;;28.10;81.90;;;;;;5084511;28;20099;-53
2021/04/27 10:16:37;;;;;;;9.85;4.30;;;28.20;81.80;;;;;;5084393;28;20028;-52
2021/04/27 10:19:05;;;;;;;8.93;5.00;;;28.20;81.70;;;;;;5084540;28;20017;-46
2021/04/27 10:21:36;;;;;;;10.68;3.78;;;28.20;81.50;;;;;;5084525;28;20021;-51
2021/04/27 10:24:07;;;;;;;8.32;3.90;;;28.20;81.30;;;;;;5084138;28;20091;-59
2021/04/27 10:26:35;;;;;;;7.43;3.80;;;28.20;81.30;;;;;;5084287;28;20157;-55
2021/04/27 10:29:07;;;;;;;11.57;3.83;;;28.20;81.10;;;;;;5084129;28;20076;-46
2021/04/27 10:31:37;;;;;;;7.97;3.78;;;28.20;81.00;;;;;;5084183;28;20036;-46
2021/04/27 10:34:11;;;;;;;8.20;3.80;;;28.20;80.90;;;;;;5084078;28;20027;-46
2021/04/27 10:36:57;;;;;;;5.72;3.83;;;28.10;80.90;;;;;;5084100;28;20035;-51
2021/04/27 10:39:47;;;;;;;7.93;3.85;;;28.10;80.80;;;;;;5083786;28;20040;-51
2021/04/27 10:42:18;;;;;;;7.22;3.25;;;28.10;80.90;;;;;;5084273;28;20039;-46
2021/04/27 10:45:03;;;;;;;6.28;3.58;;;28.10;80.90;;;;;;5084118;28;20087;-46
2021/04/27 10:47:40;;;;;;;9.45;3.60;;;28.10;81.00;;;;;;5084344;28;20028;-45
2021/04/27 10:50:08;;;;;;;8.68;3.80;;;28.10;81.00;;;;;;5083794;28;20336;-54
2021/04/27 10:52:41;;;;;;;15.48;3.90;;;28.10;81.00;;;;;;5084272;28;20218;-59
2021/04/27 10:55:30;;;;;;;9.00;3.88;;;28.10;81.00;;;;;;5083841;28;20016;-48
2021/04/27 10:58:04;;;;;;;14.27;3.90;;;28.10;81.00;;;;;;5084380;28;20048;-48
2021/04/27 11:00:40;;;;;;;11.88;3.80;;;28.10;81.00;;;;;;5083925;28;20020;-52
2021/04/27 11:03:24;;;;;;;11.15;3.53;;;28.10;81.10;;;;;;5083746;28;20367;-51
2021/04/27 11:06:05;;;;;;;8.85;3.63;;;28.10;81.30;;;;;;5083645;28;20217;-48
2021/04/27 11:08:50;;;;;;;14.00;4.28;;;28.10;81.60;;;;;;5083685;28;20023;-50
2021/04/27 11:11:34;;;;;;;10.80;4.18;;;28.10;81.50;;;;;;5083327;28;20029;-55
2021/04/27 11:14:23;;;;;;;11.20;4.75;;;28.10;81.50;;;;;;5083755;28;20024;-49
2021/04/27 11:16:57;;;;;;;20.52;5.10;;;28.10;81.50;;;;;;5083929;28;20025;-50
2021/04/27 11:19:27;;;;;;;16.13;4.22;;;28.10;81.80;;;;;;5083723;28;20309;-47
2021/04/27 11:22:14;;;;;;;15.93;5.05;;;28.10;81.80;;;;;;5083772;28;20309;-45
2021/04/27 11:24:41;;;;;;;15.23;4.65;;;28.10;82.10;;;;;;5083780;28;20040;-49
2021/04/27 11:27:22;;;;;;;16.35;4.63;;;28.10;82.10;;;;;;5083141;28;20055;-49
2021/04/27 11:29:58;;;;;;;10.75;4.82;;;28.10;82.20;;;;;;5083483;28;20028;-48
2021/04/27 11:32:26;;;;;;;15.05;5.00;;;28.10;82.30;;;;;;5083804;28;20025;-45
2021/04/27 11:35:17;;;;;;;12.07;5.30;;;28.10;82.30;;;;;;5083508;28;20017;-47
2021/04/27 11:37:56;;;;;;;35.42;7.60;;;28.10;82.20;;;;;;5083649;28;20096;-49
2021/04/27 11:40:29;;;;;;;41.47;8.65;;;28.10;82.00;;;;;;5083415;28;20021;-49
2021/04/27 11:43:11;;;;;;;53.08;9.10;;;28.10;82.40;;;;;;5085281;28;20074;-59
2021/04/27 11:45:49;;;;;;;46.30;9.00;;;28.10;82.70;;;;;;5087448;28;20020;-55
2021/04/27 11:48:18;;;;;;;51.70;9.88;;;28.10;83.10;;;;;;5087114;28;20056;-54
2021/04/27 11:50:46;;;;;;;90.13;12.25;;;28.10;83.30;;;;;;5087228;28;20020;-45
2021/04/27 11:53:25;;;;;;;75.32;12.30;;;28.10;83.70;;;;;;5087069;28;20019;-46
2021/04/27 11:55:54;;;;;;;89.75;13.88;;;28.10;84.00;;;;;;5087013;28;20012;-51
2021/04/27 11:58:24;;;;;;;76.75;12.55;;;28.10;84.20;;;;;;5087100;28;20027;-48
2021/04/27 12:00:53;;;;;;;74.32;12.88;;;28.10;84.50;;;;;;5086747;28;20083;-47
2021/04/27 12:03:40;;;;;;;100.60;14.65;;;28.10;84.60;;;;;;5086939;28;20194;-45
2021/04/27 12:06:12;;;;;;;101.35;13.60;;;28.10;85.00;;;;;;5086858;28;20257;-46
2021/04/27 12:08:52;;;;;;;72.85;11.10;;;28.10;85.70;;;;;;5086790;28;20089;-60
2021/04/27 12:11:31;;;;;;;78.20;11.27;;;28.10;85.20;;;;;;5086597;28;20063;-47
2021/04/27 12:14:17;;;;;;;91.82;14.43;;;28.10;85.30;;;;;;5086805;28;20024;-57
2021/04/27 12:16:46;;;;;;;75.25;12.65;;;28.20;85.40;;;;;;5086834;28;20079;-48
2021/04/27 12:19:22;;;;;;;78.32;13.20;;;28.20;85.30;;;;;;5086628;28;20020;-49
2021/04/27 12:21:55;;;;;;;92.20;14.00;;;28.20;85.30;;;;;;5086736;28;20118;-49
2021/04/27 12:24:27;;;;;;;93.90;13.57;;;28.20;85.40;;;;;;5086678;28;20308;-45
2021/04/27 12:27:08;;;;;;;58.97;11.55;;;28.20;85.50;;;;;;5086660;28;20055;-49
2021/04/27 12:29:37;;;;;;;87.25;12.30;;;28.20;85.60;;;;;;5086522;28;20033;-56
2021/04/27 12:32:16;;;;;;;76.68;12.27;;;28.20;85.60;;;;;;5086872;28;20094;-47
2021/04/27 12:35:05;;;;;;;65.97;12.27;;;28.20;85.60;;;;;;5086324;28;20288;-56
2021/04/27 12:37:43;;;;;;;71.25;11.30;;;28.20;85.70;;;;;;5086479;28;20048;-49
2021/04/27 12:40:20;;;;;;;69.90;11.77;;;28.20;85.70;;;;;;5086312;28;20020;-49
2021/04/27 12:42:50;;;;;;;116.13;14.52;;;28.20;85.80;;;;;;5086551;28;20358;-53
2021/04/27 12:45:17;;;;;;;77.18;12.65;;;28.30;86.00;;;;;;5086252;28;20312;-54
2021/04/27 12:47:47;;;;;;;73.32;12.18;;;28.30;86.00;;;;;;5086559;28;20031;-47
2021/04/27 12:50:19;;;;;;;88.60;12.73;;;28.20;86.20;;;;;;5085971;28;20095;-50
2021/04/27 12:53:00;;;;;;;89.13;12.93;;;28.30;86.20;;;;;;5086366;28;20024;-47